Time;durP1;ratioP1;P1;durP2;ratioP2;P2;SDS_P1;SDS_P2;PMS_P1;PMS_P2;Temp;Humidity;BMP_temperature;BMP_pressure;BME280_temperature;BME280_humidity;BME280_pressure;Samples;Min_cycle;Max_cycle;Signal;HPM_P1;HPM_P2
2024/01/13 00:01:38;;;;;;;9.80;6.70;;;;;;;-128.00;-1.00;-1.00;100204;1281;1003818;-31
2024/01/13 00:04:04;;;;;;;9.60;5.30;;;;;;;-128.00;-1.00;-1.00;100243;1281;1003648;-32
2024/01/13 00:06:29;;;;;;;9.30;6.40;;;;;;;-128.00;-1.00;-1.00;100203;1282;1046656;-31
2024/01/13 00:08:55;;;;;;;10.90;7.80;;;;;;;-128.00;-1.00;-1.00;100336;1286;1004242;-30
2024/01/13 00:11:20;;;;;;;12.20;5.80;;;;;;;-128.00;-1.00;-1.00;100186;1282;1003732;-31
2024/01/13 00:13:46;;;;;;;11.40;6.40;;;;;;;-128.00;-1.00;-1.00;100200;1282;1013311;-33
2024/01/13 00:16:12;;;;;;;14.40;8.50;;;;;;;-128.00;-1.00;-1.00;100217;1281;1002629;-31
2024/01/13 00:18:37;;;;;;;9.80;5.60;;;;;;;-128.00;-1.00;-1.00;100282;1282;1003395;-34
2024/01/13 00:21:03;;;;;;;13.60;6.40;;;;;;;-128.00;-1.00;-1.00;100311;1281;1055096;-30
2024/01/13 00:23:34;;;;;;;15.20;7.30;;;;;;;-128.00;-1.00;-1.00;100194;1282;1003763;-32
2024/01/13 00:26:00;;;;;;;11.20;5.80;;;;;;;-128.00;-1.00;-1.00;100275;1282;1013210;-33
2024/01/13 00:28:25;;;;;;;10.20;6.90;;;;;;;-128.00;-1.00;-1.00;100035;1282;1004284;-33
2024/01/13 00:30:51;;;;;;;12.40;7.30;;;;;;;-128.00;-1.00;-1.00;100255;1281;1003249;-31
2024/01/13 00:33:17;;;;;;;14.40;8.30;;;;;;;-128.00;-1.00;-1.00;100277;1282;1056665;-30
2024/01/13 00:35:42;;;;;;;14.10;6.40;;;;;;;-128.00;-1.00;-1.00;100258;1281;1003066;-36
2024/01/13 00:38:08;;;;;;;12.20;7.50;;;;;;;-128.00;-1.00;-1.00;100195;1287;1039353;-30
2024/01/13 00:40:34;;;;;;;13.40;6.40;;;;;;;-128.00;-1.00;-1.00;100218;1282;1002914;-32
2024/01/13 00:43:00;;;;;;;16.50;8.00;;;;;;;-128.00;-1.00;-1.00;100300;1281;1002769;-33
2024/01/13 00:45:26;;;;;;;15.70;8.10;;;;;;;-128.00;-1.00;-1.00;100144;1282;1058789;-32
2024/01/13 00:47:51;;;;;;;12.70;8.10;;;;;;;-128.00;-1.00;-1.00;100268;1281;1003837;-32
2024/01/13 00:50:17;;;;;;;10.50;5.80;;;;;;;-128.00;-1.00;-1.00;100275;1282;1003035;-33
2024/01/13 00:52:43;;;;;;;11.30;7.00;;;;;;;-128.00;-1.00;-1.00;100220;1281;1003297;-31
2024/01/13 00:55:08;;;;;;;10.40;6.70;;;;;;;-128.00;-1.00;-1.00;100352;1282;1004083;-29
2024/01/13 00:57:34;;;;;;;19.40;9.30;;;;;;;-128.00;-1.00;-1.00;100199;1282;1002642;-31
2024/01/13 00:59:59;;;;;;;17.60;7.90;;;;;;;-128.00;-1.00;-1.00;100358;1282;1002707;-33
2024/01/13 01:02:25;;;;;;;13.70;7.40;;;;;;;-128.00;-1.00;-1.00;100322;1282;1002079;-33
2024/01/13 01:04:50;;;;;;;16.10;10.90;;;;;;;-128.00;-1.00;-1.00;100187;1282;1002777;-29
2024/01/13 01:07:16;;;;;;;15.70;10.90;;;;;;;-128.00;-1.00;-1.00;100231;1281;1004146;-31
2024/01/13 01:09:41;;;;;;;14.60;8.80;;;;;;;-128.00;-1.00;-1.00;100260;1287;1004554;-30
2024/01/13 01:12:07;;;;;;;14.20;7.60;;;;;;;-128.00;-1.00;-1.00;100250;1282;1003413;-33
2024/01/13 01:14:32;;;;;;;14.90;7.10;;;;;;;-128.00;-1.00;-1.00;100293;1282;1003404;-31
2024/01/13 01:16:58;;;;;;;15.50;6.40;;;;;;;-128.00;-1.00;-1.00;100199;1282;1003784;-33
2024/01/13 01:19:24;;;;;;;11.40;6.70;;;;;;;-128.00;-1.00;-1.00;100333;1281;1003121;-31
2024/01/13 01:21:49;;;;;;;13.30;7.30;;;;;;;-128.00;-1.00;-1.00;100294;1287;1003622;-31
2024/01/13 01:24:15;;;;;;;10.90;4.90;;;;;;;-128.00;-1.00;-1.00;100285;1282;1060826;-31
2024/01/13 01:26:40;;;;;;;14.00;7.10;;;;;;;-128.00;-1.00;-1.00;100181;1281;1003508;-31
2024/01/13 01:29:07;;;;;;;11.20;6.60;;;;;;;-128.00;-1.00;-1.00;100199;1281;1003299;-31
2024/01/13 01:31:32;;;;;;;11.50;7.10;;;;;;;-128.00;-1.00;-1.00;100192;1281;1003261;-31
2024/01/13 01:33:58;;;;;;;15.20;9.70;;;;;;;-128.00;-1.00;-1.00;100336;1282;1002364;-31
2024/01/13 01:36:24;;;;;;;12.40;6.30;;;;;;;-128.00;-1.00;-1.00;100257;1282;1055415;-32
2024/01/13 01:38:49;;;;;;;9.90;3.80;;;;;;;-128.00;-1.00;-1.00;100062;1282;1005596;-31
2024/01/13 01:41:15;;;;;;;11.00;6.80;;;;;;;-128.00;-1.00;-1.00;100248;1282;1003798;-31
2024/01/13 01:43:41;;;;;;;9.60;5.60;;;;;;;-128.00;-1.00;-1.00;100476;1281;1045834;-32
2024/01/13 01:46:06;;;;;;;14.70;6.80;;;;;;;-128.00;-1.00;-1.00;100249;1281;1004594;-32
2024/01/13 01:48:37;;;;;;;11.80;5.80;;;;;;;-128.00;-1.00;-1.00;100252;1286;1002960;-32
2024/01/13 01:51:04;;;;;;;11.90;4.90;;;;;;;-128.00;-1.00;-1.00;100200;1281;1013651;-32
2024/01/13 01:53:29;;;;;;;13.50;6.30;;;;;;;-128.00;-1.00;-1.00;100158;1287;1002583;-32
2024/01/13 02:35:15;;;;;;;13.80;6.80;;;;;;;-0.99;100.00;99678.84;103552;1285;612794;-30
2024/01/13 02:38:01;;;;;;;11.00;5.80;;;;;;;-0.70;100.00;99673.52;103570;1287;107044;-32
2024/01/13 02:40:26;;;;;;;11.60;6.00;;;;;;;-0.55;100.00;99674.46;103750;1287;60488;-30
2024/01/13 02:42:52;;;;;;;9.70;4.00;;;;;;;-0.71;100.00;99665.67;103637;1287;60466;-31
2024/01/13 02:45:17;;;;;;;12.40;5.20;;;;;;;-0.62;100.00;99668.33;103758;1287;60413;-31
2024/01/13 02:47:45;;;;;;;10.80;6.10;;;;;;;-51.51;59.60;59800.43;102410;1287;1002814;-31
2024/01/13 02:50:11;;;;;;;14.50;7.70;;;;;;;-128.00;-1.00;-1.00;100164;1287;1003340;-32
2024/01/13 02:52:38;;;;;;;15.40;6.80;;;;;;;-128.00;-1.00;-1.00;100277;1285;1003217;-33
2024/01/13 02:55:04;;;;;;;12.50;6.80;;;;;;;-128.00;-1.00;-1.00;100307;1287;1004259;-31
2024/01/13 02:57:30;;;;;;;10.00;5.80;;;;;;;-128.00;-1.00;-1.00;100111;1285;1003031;-33
2024/01/13 02:59:55;;;;;;;12.90;8.00;;;;;;;-128.00;-1.00;-1.00;100057;1284;1003469;-32
2024/01/13 03:02:21;;;;;;;18.30;9.60;;;;;;;-128.00;-1.00;-1.00;100196;1285;1002766;-32
2024/01/13 03:04:46;;;;;;;13.50;7.90;;;;;;;-128.00;-1.00;-1.00;100308;1285;1003021;-32
2024/01/13 03:07:12;;;;;;;13.30;6.10;;;;;;;-128.00;-1.00;-1.00;100060;1285;1003896;-32
2024/01/13 03:09:39;;;;;;;12.40;7.60;;;;;;;-128.00;-1.00;-1.00;100102;1287;1058558;-31
2024/01/13 03:12:05;;;;;;;13.90;8.20;;;;;;;-128.00;-1.00;-1.00;100172;1285;1003932;-32
2024/01/13 03:14:31;;;;;;;15.70;6.10;;;;;;;-128.00;-1.00;-1.00;100082;1286;1003237;-33
2024/01/13 03:16:56;;;;;;;15.20;6.50;;;;;;;-128.00;-1.00;-1.00;100328;1285;1003796;-31
2024/01/13 03:19:22;;;;;;;13.40;7.40;;;;;;;-128.00;-1.00;-1.00;100158;1283;1003005;-32
2024/01/13 03:21:47;;;;;;;11.90;6.80;;;;;;;-128.00;-1.00;-1.00;100140;1284;1003515;-35
2024/01/13 03:24:13;;;;;;;11.20;6.40;;;;;;;-128.00;-1.00;-1.00;100186;1285;1059095;-30
2024/01/13 03:26:39;;;;;;;12.10;7.00;;;;;;;-128.00;-1.00;-1.00;100081;1285;1003675;-32
2024/01/13 03:29:04;;;;;;;9.40;5.50;;;;;;;-128.00;-1.00;-1.00;100302;1285;1003005;-32
2024/01/13 03:31:29;;;;;;;9.60;6.10;;;;;;;-128.00;-1.00;-1.00;100266;1285;1003193;-32
2024/01/13 03:33:55;;;;;;;11.70;6.70;;;;;;;-128.00;-1.00;-1.00;100188;1286;1003422;-30
2024/01/13 03:36:21;;;;;;;13.60;6.80;;;;;;;-128.00;-1.00;-1.00;100128;1285;1003166;-30
2024/01/13 03:38:46;;;;;;;15.60;9.70;;;;;;;-128.00;-1.00;-1.00;100250;1287;1002500;-30
2024/01/13 03:41:13;;;;;;;15.10;7.30;;;;;;;-128.00;-1.00;-1.00;100197;1284;1059177;-32
2024/01/13 03:43:39;;;;;;;13.20;6.60;;;;;;;-128.00;-1.00;-1.00;100174;1288;1002860;-32
2024/01/13 03:46:05;;;;;;;13.40;7.60;;;;;;;-128.00;-1.00;-1.00;100020;1285;1003391;-31
2024/01/13 03:48:30;;;;;;;;;;;;;;;-128.00;-1.00;-1.00;100127;1287;1039262;-29
2024/01/13 03:50:56;;;;;;;10.30;6.20;;;;;;;-128.00;-1.00;-1.00;100262;1285;1003353;-32
2024/01/13 03:53:21;;;;;;;15.10;7.50;;;;;;;-128.00;-1.00;-1.00;100196;1285;1003076;-30
2024/01/13 03:55:47;;;;;;;16.60;7.70;;;;;;;-128.00;-1.00;-1.00;100171;1285;1059197;-30
2024/01/13 03:58:13;;;;;;;12.10;7.90;;;;;;;-128.00;-1.00;-1.00;100195;1283;1003189;-30
2024/01/13 04:00:38;;;;;;;14.00;7.20;;;;;;;-128.00;-1.00;-1.00;100132;1287;1003409;-29
2024/01/13 04:03:04;;;;;;;11.10;6.80;;;;;;;-128.00;-1.00;-1.00;100193;1285;1003010;-31
2024/01/13 04:05:30;;;;;;;13.90;7.10;;;;;;;-128.00;-1.00;-1.00;100144;1285;1004074;-29
2024/01/13 04:07:55;;;;;;;10.80;6.50;;;;;;;-128.00;-1.00;-1.00;100133;1288;1012584;-29
2024/01/13 04:10:21;;;;;;;12.10;6.30;;;;;;;-128.00;-1.00;-1.00;100146;1285;1002754;-29
2024/01/13 04:12:46;;;;;;;17.20;7.50;;;;;;;-128.00;-1.00;-1.00;100049;1285;1003450;-31
2024/01/13 04:15:13;;;;;;;15.00;7.50;;;;;;;-128.00;-1.00;-1.00;100038;1288;1058148;-30
2024/01/13 04:17:38;;;;;;;;;;;;;;;-128.00;-1.00;-1.00;100215;1287;1003466;-31
2024/01/13 04:20:04;;;;;;;14.70;8.30;;;;;;;-128.00;-1.00;-1.00;100243;1283;1003008;-31
2024/01/13 04:22:30;;;;;;;17.70;8.30;;;;;;;-128.00;-1.00;-1.00;100171;1285;1045799;-30
2024/01/13 04:24:55;;;;;;;10.30;6.10;;;;;;;-128.00;-1.00;-1.00;100197;1285;1003334;-31
2024/01/13 04:27:21;;;;;;;14.10;6.10;;;;;;;-128.00;-1.00;-1.00;100170;1285;1004179;-29
2024/01/13 04:29:47;;;;;;;9.70;6.50;;;;;;;-128.00;-1.00;-1.00;100095;1283;1004671;-31
2024/01/13 04:32:12;;;;;;;14.60;7.10;;;;;;;-128.00;-1.00;-1.00;100193;1287;1004830;-30
2024/01/13 04:34:38;;;;;;;12.70;6.50;;;;;;;-128.00;-1.00;-1.00;100142;1285;1003029;-29
2024/01/13 04:37:04;;;;;;;7.60;5.20;;;;;;;-128.00;-1.00;-1.00;100196;1283;1003452;-31
2024/01/13 04:39:29;;;;;;;10.10;5.70;;;;;;;-128.00;-1.00;-1.00;100165;1283;1013839;-30
2024/01/13 04:41:55;;;;;;;8.30;4.70;;;;;;;-128.00;-1.00;-1.00;100216;1287;1003545;-29
2024/01/13 04:44:20;;;;;;;8.30;4.60;;;;;;;-128.00;-1.00;-1.00;100142;1285;1002856;-29
2024/01/13 04:46:46;;;;;;;12.50;7.00;;;;;;;-128.00;-1.00;-1.00;100010;1283;1004493;-31
2024/01/13 04:49:12;;;;;;;12.30;6.80;;;;;;;-128.00;-1.00;-1.00;100125;1285;1002811;-30
2024/01/13 04:51:37;;;;;;;;;;;;;;;-128.00;-1.00;-1.00;100176;1287;1038758;-30
2024/01/13 04:54:03;;;;;;;15.10;7.00;;;;;;;-128.00;-1.00;-1.00;100187;1284;1003802;-30
2024/01/13 04:56:30;;;;;;;18.00;7.10;;;;;;;-128.00;-1.00;-1.00;100187;1287;1056534;-33
2024/01/13 04:58:56;;;;;;;13.80;7.40;;;;;;;-128.00;-1.00;-1.00;100159;1283;1002716;-32
2024/01/13 05:01:21;;;;;;;11.30;6.70;;;;;;;-128.00;-1.00;-1.00;100088;1283;1002554;-32
2024/01/13 05:03:47;;;;;;;17.50;8.10;;;;;;;-128.00;-1.00;-1.00;100093;1283;1047379;-33
2024/01/13 05:06:15;;;;;;;12.60;7.10;;;;;;;-128.00;-1.00;-1.00;100103;1287;1003388;-29
2024/01/13 05:08:41;;;;;;;11.90;5.90;;;;;;;-128.00;-1.00;-1.00;100228;1285;1003464;-29
2024/01/13 05:11:07;;;;;;;;;;;;;;;-128.00;-1.00;-1.00;100158;1287;1003286;-33
2024/01/13 05:13:32;;;;;;;16.30;7.30;;;;;;;-128.00;-1.00;-1.00;100141;1285;1003016;-31
2024/01/13 05:15:58;;;;;;;10.20;5.60;;;;;;;-128.00;-1.00;-1.00;100156;1285;1045836;-33
2024/01/13 05:18:24;;;;;;;11.20;6.20;;;;;;;-128.00;-1.00;-1.00;100180;1285;1003941;-30
2024/01/13 05:20:49;;;;;;;9.30;5.80;;;;;;;-128.00;-1.00;-1.00;100086;1285;1058688;-32
2024/01/13 05:23:15;;;;;;;10.90;6.00;;;;;;;-128.00;-1.00;-1.00;100181;1285;1004098;-31
2024/01/13 05:25:41;;;;;;;15.50;6.70;;;;;;;-128.00;-1.00;-1.00;100174;1287;1002609;-31
2024/01/13 05:28:07;;;;;;;15.30;5.00;;;;;;;-128.00;-1.00;-1.00;100137;1285;1003815;-32
2024/01/13 05:30:32;;;;;;;12.90;6.20;;;;;;;-128.00;-1.00;-1.00;100048;1283;1003993;-28
2024/01/13 05:32:59;;;;;;;14.30;8.80;;;;;;;-128.00;-1.00;-1.00;100125;1283;1012985;-33
2024/01/13 05:35:25;;;;;;;10.50;5.90;;;;;;;-128.00;-1.00;-1.00;100029;1285;1003051;-31
2024/01/13 05:37:51;;;;;;;;;;;;;;;-128.00;-1.00;-1.00;100180;1283;1003283;-32
2024/01/13 05:40:16;;;;;;;9.40;4.80;;;;;;;-128.00;-1.00;-1.00;100209;1287;1003611;-30
2024/01/13 05:42:42;;;;;;;12.40;7.30;;;;;;;-128.00;-1.00;-1.00;100099;1285;1059523;-30
2024/01/13 05:45:08;;;;;;;20.10;8.40;;;;;;;-128.00;-1.00;-1.00;100194;1287;1003342;-30
2024/01/13 05:47:34;;;;;;;12.00;5.60;;;;;;;-128.00;-1.00;-1.00;100219;1287;1003914;-30
2024/01/13 05:50:00;;;;;;;12.50;5.50;;;;;;;-128.00;-1.00;-1.00;100053;1283;1058484;-31
2024/01/13 05:52:26;;;;;;;11.50;5.70;;;;;;;-128.00;-1.00;-1.00;100198;1284;1003313;-32
2024/01/13 05:54:52;;;;;;;12.50;4.80;;;;;;;-128.00;-1.00;-1.00;100146;1287;1003225;-32
2024/01/13 05:57:18;;;;;;;9.80;5.00;;;;;;;-128.00;-1.00;-1.00;99937;1288;1002985;-29
2024/01/13 05:59:44;;;;;;;16.80;6.60;;;;;;;-128.00;-1.00;-1.00;100247;1287;1046436;-30
2024/01/13 06:02:09;;;;;;;12.50;6.50;;;;;;;-128.00;-1.00;-1.00;100190;1287;1003760;-32
2024/01/13 06:04:35;;;;;;;20.10;6.00;;;;;;;-128.00;-1.00;-1.00;100127;1287;1002586;-32
2024/01/13 06:07:04;;;;;;;8.90;4.90;;;;;;;-128.00;-1.00;-1.00;100129;1287;1013407;-32
2024/01/13 06:09:31;;;;;;;10.20;5.30;;;;;;;-128.00;-1.00;-1.00;100148;1285;1039070;-32
2024/01/13 06:11:56;;;;;;;9.30;4.90;;;;;;;-128.00;-1.00;-1.00;100185;1285;1003224;-30
2024/01/13 06:14:22;;;;;;;7.60;4.60;;;;;;;-128.00;-1.00;-1.00;100228;1287;1003556;-44
2024/01/13 06:16:48;;;;;;;11.70;6.70;;;;;;;-128.00;-1.00;-1.00;100174;1287;1003036;-30
2024/01/13 06:19:14;;;;;;;15.80;8.00;;;;;;;-128.00;-1.00;-1.00;100171;1283;1012336;-32
2024/01/13 06:21:43;;;;;;;11.30;7.00;;;;;;;-128.00;-1.00;-1.00;100170;1285;1003186;-34
2024/01/13 06:24:12;;;;;;;17.90;7.00;;;;;;;-128.00;-1.00;-1.00;100193;1287;1046473;-33
2024/01/13 06:26:41;;;;;;;13.40;7.30;;;;;;;-128.00;-1.00;-1.00;100218;1288;1059581;-30
2024/01/13 06:29:07;;;;;;;15.50;6.10;;;;;;;-128.00;-1.00;-1.00;100184;1285;1055520;-31
2024/01/13 06:31:33;;;;;;;18.80;8.70;;;;;;;-128.00;-1.00;-1.00;100149;1287;1003065;-31
2024/01/13 06:33:59;;;;;;;13.50;6.10;;;;;;;-128.00;-1.00;-1.00;100164;1287;1003056;-31
2024/01/13 06:36:25;;;;;;;20.00;7.10;;;;;;;-128.00;-1.00;-1.00;100121;1284;1003200;-30
2024/01/13 06:38:51;;;;;;;13.20;6.60;;;;;;;-128.00;-1.00;-1.00;100166;1283;1059630;-29
2024/01/13 06:41:17;;;;;;;6.20;4.50;;;;;;;-128.00;-1.00;-1.00;100178;1287;1003810;-30
2024/01/13 06:43:42;;;;;;;15.50;7.20;;;;;;;-128.00;-1.00;-1.00;100132;1285;1003642;-30
2024/01/13 06:46:08;;;;;;;10.10;5.80;;;;;;;-128.00;-1.00;-1.00;100168;1287;1039201;-32
2024/01/13 06:48:34;;;;;;;15.90;8.50;;;;;;;-128.00;-1.00;-1.00;100195;1288;1003169;-32
2024/01/13 06:51:00;;;;;;;9.00;6.70;;;;;;;-128.00;-1.00;-1.00;100090;1287;1002376;-30
2024/01/13 06:53:25;;;;;;;16.80;6.00;;;;;;;-128.00;-1.00;-1.00;99923;1285;1059357;-30
2024/01/13 06:55:51;;;;;;;11.80;7.30;;;;;;;-128.00;-1.00;-1.00;100181;1285;1002954;-30
2024/01/13 06:58:17;;;;;;;10.30;7.10;;;;;;;-128.00;-1.00;-1.00;100153;1286;1004059;-30
2024/01/13 07:00:42;;;;;;;14.90;8.00;;;;;;;-128.00;-1.00;-1.00;100154;1287;1060431;-30
2024/01/13 07:03:08;;;;;;;15.30;6.90;;;;;;;-128.00;-1.00;-1.00;100162;1285;1002975;-32
2024/01/13 07:05:34;;;;;;;17.30;8.50;;;;;;;-128.00;-1.00;-1.00;100150;1288;1003240;-32
2024/01/13 07:08:00;;;;;;;16.40;7.60;;;;;;;-128.00;-1.00;-1.00;100164;1289;1003349;-32
2024/01/13 07:10:29;;;;;;;24.80;9.50;;;;;;;-128.00;-1.00;-1.00;100170;1288;1003706;-32
2024/01/13 07:12:56;;;;;;;22.40;7.70;;;;;;;-128.00;-1.00;-1.00;100113;1283;1060224;-30
2024/01/13 07:15:21;;;;;;;13.50;7.60;;;;;;;-128.00;-1.00;-1.00;100174;1286;1003710;-31
2024/01/13 07:17:47;;;;;;;9.10;5.20;;;;;;;-128.00;-1.00;-1.00;100158;1288;1002848;-30
2024/01/13 07:20:13;;;;;;;19.60;6.90;;;;;;;-128.00;-1.00;-1.00;100158;1283;1039331;-32
2024/01/13 07:22:40;;;;;;;14.60;6.80;;;;;;;-128.00;-1.00;-1.00;100120;1288;1002647;-32
2024/01/13 07:25:06;;;;;;;;;;;;;;;-128.00;-1.00;-1.00;100235;1283;1004836;-31
2024/01/13 07:27:31;;;;;;;9.60;6.60;;;;;;;-128.00;-1.00;-1.00;100210;1285;1003180;-32
2024/01/13 07:29:59;;;;;;;15.50;6.40;;;;;;;-128.00;-1.00;-1.00;100058;1285;1003003;-32
2024/01/13 07:32:24;;;;;;;12.40;5.10;;;;;;;-128.00;-1.00;-1.00;100134;1288;1039770;-32
2024/01/13 07:34:50;;;;;;;15.10;7.50;;;;;;;-128.00;-1.00;-1.00;100155;1286;1003459;-31
2024/01/13 07:37:15;;;;;;;17.90;8.10;;;;;;;-128.00;-1.00;-1.00;100184;1285;1003788;-32
2024/01/13 07:39:42;;;;;;;11.70;5.00;;;;;;;-128.00;-1.00;-1.00;100160;1288;1004306;-32
2024/01/13 07:42:08;;;;;;;10.50;5.60;;;;;;;-128.00;-1.00;-1.00;100239;1287;1004677;-32
2024/01/13 07:44:34;;;;;;;12.80;6.90;;;;;;;-128.00;-1.00;-1.00;100194;1287;1003319;-32
2024/01/13 07:47:01;;;;;;;16.90;6.20;;;;;;;-128.00;-1.00;-1.00;100139;1287;1060305;-30
2024/01/13 07:49:27;;;;;;;11.30;5.10;;;;;;;-128.00;-1.00;-1.00;100109;1287;1003640;-34
2024/01/13 07:51:54;;;;;;;;;;;;;;;-128.00;-1.00;-1.00;100163;1283;1002747;-31
2024/01/13 07:54:23;;;;;;;11.20;5.90;;;;;;;-128.00;-1.00;-1.00;100147;1283;1003536;-33
2024/01/13 07:56:49;;;;;;;11.70;5.40;;;;;;;-128.00;-1.00;-1.00;100134;1289;1039354;-31
2024/01/13 07:59:16;;;;;;;10.70;5.40;;;;;;;-128.00;-1.00;-1.00;100168;1288;1002956;-31
2024/01/13 08:01:42;;;;;;;10.80;7.00;;;;;;;-128.00;-1.00;-1.00;100077;1288;1003291;-32
2024/01/13 08:04:08;;;;;;;9.10;5.70;;;;;;;-128.00;-1.00;-1.00;100168;1285;1003749;-30
2024/01/13 08:06:33;;;;;;;10.60;5.20;;;;;;;-128.00;-1.00;-1.00;100132;1283;1003018;-30
2024/01/13 08:08:59;;;;;;;12.00;5.50;;;;;;;-128.00;-1.00;-1.00;100105;1284;1003682;-30
2024/01/13 08:11:25;;;;;;;14.60;7.00;;;;;;;-128.00;-1.00;-1.00;100194;1290;1002796;-30
2024/01/13 08:13:50;;;;;;;13.20;6.50;;;;;;;-128.00;-1.00;-1.00;100234;1287;1003406;-30
2024/01/13 08:16:16;;;;;;;12.80;6.70;;;;;;;-128.00;-1.00;-1.00;100016;1288;1059588;-32
2024/01/13 08:18:42;;;;;;;10.00;6.70;;;;;;;-128.00;-1.00;-1.00;100150;1283;1003831;-34
2024/01/13 08:21:07;;;;;;;;;;;;;;;-128.00;-1.00;-1.00;100119;1289;1003963;-30
2024/01/13 08:23:33;;;;;;;13.60;6.70;;;;;;;-128.00;-1.00;-1.00;100142;1283;1003479;-32
2024/01/13 08:26:00;;;;;;;7.80;5.10;;;;;;;-128.00;-1.00;-1.00;100202;1287;1003069;-32
2024/01/13 08:28:25;;;;;;;10.80;5.10;;;;;;;-128.00;-1.00;-1.00;100115;1285;1003757;-31
2024/01/13 08:30:51;;;;;;;14.50;6.80;;;;;;;-128.00;-1.00;-1.00;100185;1288;1003364;-29
2024/01/13 08:33:17;;;;;;;15.20;8.20;;;;;;;-128.00;-1.00;-1.00;100259;1288;1046105;-29
2024/01/13 08:35:43;;;;;;;12.20;4.50;;;;;;;-128.00;-1.00;-1.00;100196;1283;1003574;-30
2024/01/13 08:38:09;;;;;;;;;;;;;;;-128.00;-1.00;-1.00;100163;1287;1002895;-30
2024/01/13 08:40:35;;;;;;;39.70;14.60;;;;;;;-128.00;-1.00;-1.00;100144;1287;1012567;-31
2024/01/13 08:43:02;;;;;;;10.20;3.70;;;;;;;-128.00;-1.00;-1.00;100082;1287;1005220;-31
2024/01/13 08:45:29;;;;;;;8.20;4.30;;;;;;;-128.00;-1.00;-1.00;100183;1287;1003149;-33
2024/01/13 08:47:59;;;;;;;24.20;13.10;;;;;;;-128.00;-1.00;-1.00;100130;1283;1004025;-31
2024/01/13 08:50:25;;;;;;;13.10;5.60;;;;;;;-128.00;-1.00;-1.00;100177;1283;1056354;-31
2024/01/13 08:52:54;;;;;;;9.10;5.40;;;;;;;-128.00;-1.00;-1.00;100145;1287;1003441;-34
2024/01/13 08:55:21;;;;;;;77.70;34.50;;;;;;;-128.00;-1.00;-1.00;100146;1283;1013251;-30
2024/01/13 08:57:47;;;;;;;15.30;7.70;;;;;;;-128.00;-1.00;-1.00;100130;1283;1003244;-30
2024/01/13 09:00:13;;;;;;;25.40;11.40;;;;;;;-128.00;-1.00;-1.00;100222;1283;1003114;-33
2024/01/13 09:02:39;;;;;;;18.90;8.70;;;;;;;-128.00;-1.00;-1.00;100201;1283;1002863;-32
2024/01/13 09:05:06;;;;;;;21.00;8.00;;;;;;;-128.00;-1.00;-1.00;100174;1285;1003140;-32
2024/01/13 09:07:34;;;;;;;16.30;5.90;;;;;;;-128.00;-1.00;-1.00;100212;1284;1012247;-30
2024/01/13 09:10:00;;;;;;;10.30;5.50;;;;;;;-128.00;-1.00;-1.00;100179;1289;1002487;-32
2024/01/13 09:12:25;;;;;;;12.10;7.50;;;;;;;-128.00;-1.00;-1.00;100139;1285;1003568;-32
2024/01/13 09:14:51;;;;;;;9.40;5.40;;;;;;;-128.00;-1.00;-1.00;100216;1285;1004039;-30
2024/01/13 09:17:17;;;;;;;7.90;4.50;;;;;;;-128.00;-1.00;-1.00;100120;1283;1003788;-30
2024/01/13 09:19:42;;;;;;;15.70;6.80;;;;;;;-128.00;-1.00;-1.00;100139;1287;1003268;-33
2024/01/13 09:22:08;;;;;;;21.10;6.90;;;;;;;-128.00;-1.00;-1.00;100186;1285;1003596;-36
2024/01/13 09:24:34;;;;;;;15.00;6.90;;;;;;;-128.00;-1.00;-1.00;100247;1285;1060361;-32
2024/01/13 09:27:00;;;;;;;11.40;5.30;;;;;;;-128.00;-1.00;-1.00;100023;1285;1004024;-33
2024/01/13 09:29:25;;;;;;;11.10;5.70;;;;;;;-128.00;-1.00;-1.00;100184;1283;1003033;-33
2024/01/13 09:31:51;;;;;;;16.20;6.30;;;;;;;-128.00;-1.00;-1.00;100122;1285;1003165;-33
2024/01/13 09:34:17;;;;;;;10.30;4.80;;;;;;;-128.00;-1.00;-1.00;100087;1287;1003516;-33
2024/01/13 09:36:44;;;;;;;6.40;4.30;;;;;;;-128.00;-1.00;-1.00;100084;1287;1003321;-31
2024/01/13 09:39:11;;;;;;;10.50;3.90;;;;;;;-128.00;-1.00;-1.00;100154;1284;1058557;-31
2024/01/13 09:41:40;;;;;;;9.30;4.30;;;;;;;-128.00;-1.00;-1.00;100170;1286;1003487;-31
2024/01/13 09:44:18;;;;;;;6.10;3.70;;;;;;;-128.00;-1.00;-1.00;100197;1285;1039586;-33
2024/01/13 09:46:43;;;;;;;7.70;4.20;;;;;;;-128.00;-1.00;-1.00;100168;1287;1045934;-31
2024/01/13 09:49:12;;;;;;;9.50;2.90;;;;;;;-128.00;-1.00;-1.00;100050;1287;1003333;-33
2024/01/13 09:51:39;;;;;;;9.20;4.00;;;;;;;-128.00;-1.00;-1.00;100181;1285;1056619;-34
2024/01/13 09:54:23;;;;;;;5.90;4.20;;;;;;;-128.00;-1.00;-1.00;100179;1288;1003033;-33
2024/01/13 09:56:51;;;;;;;11.30;5.60;;;;;;;-128.00;-1.00;-1.00;100187;1283;1013115;-34
2024/01/13 09:59:16;;;;;;;11.90;5.60;;;;;;;-128.00;-1.00;-1.00;100234;1283;1004149;-31
2024/01/13 10:01:42;;;;;;;16.30;9.00;;;;;;;-128.00;-1.00;-1.00;100182;1285;1002940;-32
2024/01/13 10:04:08;;;;;;;15.50;6.50;;;;;;;-128.00;-1.00;-1.00;100156;1283;1003834;-38
2024/01/13 10:06:34;;;;;;;;;;;;;;;-128.00;-1.00;-1.00;100142;1283;1004572;-32
2024/01/13 10:09:00;;;;;;;9.60;5.40;;;;;;;-128.00;-1.00;-1.00;100191;1287;1003387;-33
2024/01/13 10:11:26;;;;;;;;;;;;;;;-128.00;-1.00;-1.00;100202;1287;1003547;-33
2024/01/13 10:14:04;;;;;;;5.00;3.80;;;;;;;-128.00;-1.00;-1.00;100222;1285;1003345;-33
2024/01/13 10:16:31;;;;;;;6.50;3.70;;;;;;;-128.00;-1.00;-1.00;100240;1285;1055129;-33
2024/01/13 10:19:01;;;;;;;3.90;2.70;;;;;;;-128.00;-1.00;-1.00;100102;1282;1004550;-32
2024/01/13 10:21:27;;;;;;;5.30;2.30;;;;;;;-128.00;-1.00;-1.00;100161;1284;1013007;-30
2024/01/13 10:23:57;;;;;;;6.60;3.30;;;;;;;-128.00;-1.00;-1.00;99976;1285;1004131;-30
2024/01/13 10:26:23;;;;;;;5.50;3.80;;;;;;;-128.00;-1.00;-1.00;100186;1288;1046879;-36
2024/01/13 10:28:50;;;;;;;4.90;2.70;;;;;;;-128.00;-1.00;-1.00;100115;1283;1003139;-31
2024/01/13 10:31:18;;;;;;;5.60;2.90;;;;;;;-128.00;-1.00;-1.00;100146;1283;1003264;-32
2024/01/13 10:33:47;;;;;;;4.80;2.30;;;;;;;-128.00;-1.00;-1.00;100176;1285;1004785;-32
2024/01/13 10:36:14;;;;;;;4.60;2.50;;;;;;;-128.00;-1.00;-1.00;100179;1284;1013973;-30
2024/01/13 10:38:42;;;;;;;4.00;2.70;;;;;;;-128.00;-1.00;-1.00;100178;1287;1003664;-30
2024/01/13 10:41:11;;;;;;;4.50;2.00;;;;;;;-128.00;-1.00;-1.00;100165;1283;1002814;-32
2024/01/13 10:43:38;;;;;;;3.70;2.90;;;;;;;-128.00;-1.00;-1.00;100162;1283;1060835;-34
2024/01/13 10:46:10;;;;;;;4.40;2.30;;;;;;;-128.00;-1.00;-1.00;100180;1287;1003475;-33
2024/01/13 10:48:46;;;;;;;3.30;2.10;;;;;;;-128.00;-1.00;-1.00;100142;1283;1059500;-32
2024/01/13 10:51:37;;;;;;;3.40;1.60;;;;;;;-128.00;-1.00;-1.00;100146;1288;1011752;-33
2024/01/13 10:54:03;;;;;;;2.30;1.70;;;;;;;-128.00;-1.00;-1.00;100181;1285;1038724;-31
2024/01/13 10:56:30;;;;;;;2.20;1.30;;;;;;;-128.00;-1.00;-1.00;100221;1283;1002946;-32
2024/01/13 10:58:56;;;;;;;2.50;1.40;;;;;;;-128.00;-1.00;-1.00;100145;1283;1003804;-34
2024/01/13 11:01:23;;;;;;;5.20;2.00;;;;;;;-128.00;-1.00;-1.00;100147;1283;1003298;-30
2024/01/13 11:03:50;;;;;;;13.10;6.90;;;;;;;-128.00;-1.00;-1.00;100002;1289;1003012;-32
2024/01/13 11:06:15;;;;;;;8.20;3.50;;;;;;;-128.00;-1.00;-1.00;100166;1283;1003026;-30
2024/01/13 11:08:42;;;;;;;;;;;;;;;-128.00;-1.00;-1.00;100310;1283;1002957;-31
2024/01/13 11:11:07;;;;;;;5.00;3.20;;;;;;;-128.00;-1.00;-1.00;100195;1285;1004075;-31
2024/01/13 11:13:38;;;;;;;9.20;4.80;;;;;;;-128.00;-1.00;-1.00;100165;1286;1003490;-31
2024/01/13 11:16:06;;;;;;;4.80;1.80;;;;;;;-128.00;-1.00;-1.00;100145;1283;1058705;-32
2024/01/13 11:18:44;;;;;;;6.90;3.10;;;;;;;-128.00;-1.00;-1.00;100186;1283;1011903;-33
2024/01/13 11:21:11;;;;;;;17.10;9.70;;;;;;;-128.00;-1.00;-1.00;100175;1283;1041331;-33
2024/01/13 11:23:57;;;;;;;9.50;3.40;;;;;;;-128.00;-1.00;-1.00;100205;1283;1004013;-31
2024/01/13 11:26:36;;;;;;;4.50;2.20;;;;;;;-128.00;-1.00;-1.00;100181;1283;1060563;-36
2024/01/13 11:29:02;;;;;;;18.80;6.50;;;;;;;-128.00;-1.00;-1.00;100200;1288;1055646;-34
2024/01/13 11:31:33;;;;;;;4.50;2.10;;;;;;;-128.00;-1.00;-1.00;100124;1285;1003614;-32
2024/01/13 11:33:59;;;;;;;2.20;1.60;;;;;;;-128.00;-1.00;-1.00;100108;1286;1012761;-31
2024/01/13 11:36:27;;;;;;;;;;;;;;;-128.00;-1.00;-1.00;100129;1287;1003700;-30
2024/01/13 11:38:52;;;;;;;4.40;1.50;;;;;;;-128.00;-1.00;-1.00;100190;1283;1003126;-31
2024/01/13 11:41:18;;;;;;;4.10;2.20;;;;;;;-128.00;-1.00;-1.00;100133;1283;1003185;-31
2024/01/13 11:43:44;;;;;;;8.90;7.10;;;;;;;-128.00;-1.00;-1.00;100203;1283;1003078;-31
2024/01/13 11:46:10;;;;;;;5.10;2.10;;;;;;;-128.00;-1.00;-1.00;100097;1284;1013312;-30
2024/01/13 11:48:40;;;;;;;4.70;1.50;;;;;;;-128.00;-1.00;-1.00;100167;1283;1003604;-31
2024/01/13 11:51:10;;;;;;;5.80;3.50;;;;;;;-128.00;-1.00;-1.00;100184;1284;1047213;-31